sensor_id;sensor_type;location;lat;lon;timestamp;P1;P2;P0
77411;PMS7003;66484;49.968;19.140;2023-05-07T00:02:02;30.50;28.75;19.75
77411;PMS7003;66484;49.968;19.140;2023-05-07T00:04:31;27.00;25.67;17.00
77411;PMS7003;66484;49.968;19.140;2023-05-07T00:07:03;28.75;28.75;18.75
77411;PMS7003;66484;49.968;19.140;2023-05-07T00:09:31;32.50;27.75;19.50
77411;PMS7003;66484;49.968;19.140;2023-05-07T00:11:58;29.25;29.25;19.25
77411;PMS7003;66484;49.968;19.140;2023-05-07T00:14:25;38.75;35.50;22.50
77411;PMS7003;66484;49.968;19.140;2023-05-07T00:16:52;32.25;30.75;19.75
77411;PMS7003;66484;49.968;19.140;2023-05-07T00:19:20;36.50;30.50;20.75
77411;PMS7003;66484;49.968;19.140;2023-05-07T00:21:48;28.75;24.25;16.00
77411;PMS7003;66484;49.968;19.140;2023-05-07T00:24:16;38.25;33.00;22.00
77411;PMS7003;66484;49.968;19.140;2023-05-07T00:26:43;29.00;26.25;17.25
77411;PMS7003;66484;49.968;19.140;2023-05-07T00:29:10;31.50;30.50;21.00
77411;PMS7003;66484;49.968;19.140;2023-05-07T00:31:38;32.00;29.00;18.50
77411;PMS7003;66484;49.968;19.140;2023-05-07T00:34:05;35.25;32.00;21.75
77411;PMS7003;66484;49.968;19.140;2023-05-07T00:36:33;39.50;35.25;22.00
77411;PMS7003;66484;49.968;19.140;2023-05-07T00:39:00;44.00;36.50;22.50
77411;PMS7003;66484;49.968;19.140;2023-05-07T00:41:29;30.75;28.25;18.75
77411;PMS7003;66484;49.968;19.140;2023-05-07T00:43:59;36.50;34.00;22.75
77411;PMS7003;66484;49.968;19.140;2023-05-07T00:46:27;39.00;35.75;24.00
77411;PMS7003;66484;49.968;19.140;2023-05-07T00:48:55;39.50;33.75;20.25
77411;PMS7003;66484;49.968;19.140;2023-05-07T00:51:23;37.75;33.50;21.00
77411;PMS7003;66484;49.968;19.140;2023-05-07T00:53:51;34.00;31.75;20.50
77411;PMS7003;66484;49.968;19.140;2023-05-07T00:56:21;41.00;36.00;24.75
77411;PMS7003;66484;49.968;19.140;2023-05-07T00:58:49;40.00;36.00;23.25
77411;PMS7003;66484;49.968;19.140;2023-05-07T01:01:17;34.00;29.75;18.50
77411;PMS7003;66484;49.968;19.140;2023-05-07T01:03:44;33.75;33.00;21.25
77411;PMS7003;66484;49.968;19.140;2023-05-07T01:06:12;42.00;33.50;22.50
77411;PMS7003;66484;49.968;19.140;2023-05-07T01:08:43;36.50;30.00;21.00
77411;PMS7003;66484;49.968;19.140;2023-05-07T01:11:11;39.50;34.50;22.75
77411;PMS7003;66484;49.968;19.140;2023-05-07T01:13:39;25.50;23.50;11.50
77411;PMS7003;66484;49.968;19.140;2023-05-07T01:16:08;44.00;35.00;22.00
77411;PMS7003;66484;49.968;19.140;2023-05-07T01:18:38;32.50;31.00;20.00
77411;PMS7003;66484;49.968;19.140;2023-05-07T01:21:06;36.00;30.75;21.75
77411;PMS7003;66484;49.968;19.140;2023-05-07T01:23:35;35.75;30.75;18.50
77411;PMS7003;66484;49.968;19.140;2023-05-07T01:26:03;36.25;34.00;21.75
77411;PMS7003;66484;49.968;19.140;2023-05-07T01:28:30;36.75;29.25;17.75
77411;PMS7003;66484;49.968;19.140;2023-05-07T01:31:03;31.25;29.50;18.75
77411;PMS7003;66484;49.968;19.140;2023-05-07T01:33:31;37.25;31.25;18.25
77411;PMS7003;66484;49.968;19.140;2023-05-07T01:36:01;34.50;32.75;20.00
77411;PMS7003;66484;49.968;19.140;2023-05-07T01:38:33;35.00;28.00;16.50
77411;PMS7003;66484;49.968;19.140;2023-05-07T01:41:00;39.25;34.75;21.75
77411;PMS7003;66484;49.968;19.140;2023-05-07T01:43:28;37.50;31.50;19.00
77411;PMS7003;66484;49.968;19.140;2023-05-07T01:45:57;36.25;33.25;21.00
77411;PMS7003;66484;49.968;19.140;2023-05-07T01:48:24;37.50;34.00;19.25
77411;PMS7003;66484;49.968;19.140;2023-05-07T01:50:52;33.50;30.25;19.50
77411;PMS7003;66484;49.968;19.140;2023-05-07T01:53:20;31.50;25.75;15.50
77411;PMS7003;66484;49.968;19.140;2023-05-07T01:55:47;33.00;32.00;20.50
77411;PMS7003;66484;49.968;19.140;2023-05-07T01:58:14;28.75;28.50;18.00
77411;PMS7003;66484;49.968;19.140;2023-05-07T02:00:41;36.25;31.75;21.00
77411;PMS7003;66484;49.968;19.140;2023-05-07T02:03:09;36.25;29.25;20.50
77411;PMS7003;66484;49.968;19.140;2023-05-07T02:05:36;32.50;30.75;19.75
77411;PMS7003;66484;49.968;19.140;2023-05-07T02:08:04;33.00;28.75;21.25
77411;PMS7003;66484;49.968;19.140;2023-05-07T02:10:31;43.75;34.75;22.00
77411;PMS7003;66484;49.968;19.140;2023-05-07T02:12:58;35.50;28.25;17.50
77411;PMS7003;66484;49.968;19.140;2023-05-07T02:15:28;32.50;31.25;18.25
77411;PMS7003;66484;49.968;19.140;2023-05-07T02:17:59;19.75;18.25;14.25
77411;PMS7003;66484;49.968;19.140;2023-05-07T02:20:27;30.00;29.00;19.00
77411;PMS7003;66484;49.968;19.140;2023-05-07T02:22:55;36.00;33.00;20.25
77411;PMS7003;66484;49.968;19.140;2023-05-07T02:25:22;36.75;32.50;20.25
77411;PMS7003;66484;49.968;19.140;2023-05-07T02:27:49;32.00;30.75;19.00
77411;PMS7003;66484;49.968;19.140;2023-05-07T02:30:17;33.00;28.00;17.33
77411;PMS7003;66484;49.968;19.140;2023-05-07T02:32:44;29.75;27.75;17.50
77411;PMS7003;66484;49.968;19.140;2023-05-07T02:35:12;30.25;28.50;15.50
77411;PMS7003;66484;49.968;19.140;2023-05-07T02:37:39;26.25;22.75;14.75
77411;PMS7003;66484;49.968;19.140;2023-05-07T02:40:06;23.25;22.00;15.00
77411;PMS7003;66484;49.968;19.140;2023-05-07T02:42:34;22.67;21.67;12.67
77411;PMS7003;66484;49.968;19.140;2023-05-07T02:45:01;29.00;23.00;14.00
77411;PMS7003;66484;49.968;19.140;2023-05-07T02:47:30;27.00;23.00;15.00
77411;PMS7003;66484;49.968;19.140;2023-05-07T02:49:57;19.00;18.00;12.00
77411;PMS7003;66484;49.968;19.140;2023-05-07T02:52:24;24.00;19.67;12.33
77411;PMS7003;66484;49.968;19.140;2023-05-07T02:54:51;19.33;18.33;11.67
77411;PMS7003;66484;49.968;19.140;2023-05-07T02:57:19;23.50;22.00;15.00
77411;PMS7003;66484;49.968;19.140;2023-05-07T02:59:46;19.33;17.00;10.67
77411;PMS7003;66484;49.968;19.140;2023-05-07T03:02:14;17.50;17.50;12.25
77411;PMS7003;66484;49.968;19.140;2023-05-07T03:04:41;20.75;19.75;12.00
77411;PMS7003;66484;49.968;19.140;2023-05-07T03:07:08;19.33;16.00;11.67
77411;PMS7003;66484;49.968;19.140;2023-05-07T03:09:35;21.00;16.00;12.00
77411;PMS7003;66484;49.968;19.140;2023-05-07T03:12:03;19.00;17.00;13.00
77411;PMS7003;66484;49.968;19.140;2023-05-07T03:14:30;21.67;21.00;14.00
77411;PMS7003;66484;49.968;19.140;2023-05-07T03:16:57;19.67;19.33;12.00
77411;PMS7003;66484;49.968;19.140;2023-05-07T03:19:24;17.33;14.33;9.00
77411;PMS7003;66484;49.968;19.140;2023-05-07T03:21:52;23.67;20.67;12.67
77411;PMS7003;66484;49.968;19.140;2023-05-07T03:24:19;24.67;22.67;12.00
77411;PMS7003;66484;49.968;19.140;2023-05-07T03:26:46;14.00;14.00;10.33
77411;PMS7003;66484;49.968;19.140;2023-05-07T03:29:13;25.75;25.75;19.25
77411;PMS7003;66484;49.968;19.140;2023-05-07T03:31:41;27.25;24.50;16.75
77411;PMS7003;66484;49.968;19.140;2023-05-07T03:34:08;20.33;20.33;11.00
77411;PMS7003;66484;49.968;19.140;2023-05-07T03:36:36;21.25;20.75;12.75
77411;PMS7003;66484;49.968;19.140;2023-05-07T03:39:03;25.67;20.00;14.00
77411;PMS7003;66484;49.968;19.140;2023-05-07T03:41:31;28.75;24.25;15.00
77411;PMS7003;66484;49.968;19.140;2023-05-07T03:43:59;21.33;20.67;14.00
77411;PMS7003;66484;49.968;19.140;2023-05-07T03:46:26;22.33;19.33;13.00
77411;PMS7003;66484;49.968;19.140;2023-05-07T03:48:54;30.25;26.50;17.25
77411;PMS7003;66484;49.968;19.140;2023-05-07T03:51:22;29.75;26.25;16.25
77411;PMS7003;66484;49.968;19.140;2023-05-07T03:53:49;31.75;29.75;21.25
77411;PMS7003;66484;49.968;19.140;2023-05-07T03:56:19;31.25;28.50;18.50
77411;PMS7003;66484;49.968;19.140;2023-05-07T03:58:47;34.50;30.50;20.25
77411;PMS7003;66484;49.968;19.140;2023-05-07T04:01:15;23.25;20.50;17.00
77411;PMS7003;66484;49.968;19.140;2023-05-07T04:03:42;31.25;26.25;19.50
77411;PMS7003;66484;49.968;19.140;2023-05-07T04:06:09;27.00;22.25;15.25
77411;PMS7003;66484;49.968;19.140;2023-05-07T04:08:37;30.75;27.50;17.75
77411;PMS7003;66484;49.968;19.140;2023-05-07T04:11:04;28.00;24.50;17.50
77411;PMS7003;66484;49.968;19.140;2023-05-07T04:13:31;28.25;25.25;14.75
77411;PMS7003;66484;49.968;19.140;2023-05-07T04:16:04;34.25;26.25;19.00
77411;PMS7003;66484;49.968;19.140;2023-05-07T04:18:32;28.50;25.25;18.25
77411;PMS7003;66484;49.968;19.140;2023-05-07T04:21:00;27.75;25.00;16.50
77411;PMS7003;66484;49.968;19.140;2023-05-07T04:23:27;20.00;19.00;10.00
77411;PMS7003;66484;49.968;19.140;2023-05-07T04:25:55;25.00;23.00;14.50
77411;PMS7003;66484;49.968;19.140;2023-05-07T04:28:22;33.50;29.25;18.50
77411;PMS7003;66484;49.968;19.140;2023-05-07T04:30:50;25.25;22.00;13.50
77411;PMS7003;66484;49.968;19.140;2023-05-07T04:33:19;26.50;21.75;10.75
77411;PMS7003;66484;49.968;19.140;2023-05-07T04:35:46;22.75;20.25;12.00
77411;PMS7003;66484;49.968;19.140;2023-05-07T04:38:14;33.00;31.00;19.00
77411;PMS7003;66484;49.968;19.140;2023-05-07T04:40:41;24.75;24.25;13.75
77411;PMS7003;66484;49.968;19.140;2023-05-07T04:43:08;31.50;28.75;18.50
77411;PMS7003;66484;49.968;19.140;2023-05-07T04:45:36;36.00;26.75;17.75
77411;PMS7003;66484;49.968;19.140;2023-05-07T04:48:03;26.25;22.75;17.25
77411;PMS7003;66484;49.968;19.140;2023-05-07T04:50:31;25.00;25.00;14.00
77411;PMS7003;66484;49.968;19.140;2023-05-07T04:52:59;30.00;26.50;16.50
77411;PMS7003;66484;49.968;19.140;2023-05-07T04:55:26;28.00;25.75;17.00
77411;PMS7003;66484;49.968;19.140;2023-05-07T04:57:53;28.75;28.00;19.50
77411;PMS7003;66484;49.968;19.140;2023-05-07T05:00:20;26.25;25.25;19.00
77411;PMS7003;66484;49.968;19.140;2023-05-07T05:02:48;28.50;23.50;16.25
77411;PMS7003;66484;49.968;19.140;2023-05-07T05:05:16;33.00;27.75;16.25
77411;PMS7003;66484;49.968;19.140;2023-05-07T05:07:43;23.75;20.25;12.75
77411;PMS7003;66484;49.968;19.140;2023-05-07T05:10:10;21.50;19.25;13.00
77411;PMS7003;66484;49.968;19.140;2023-05-07T05:12:38;24.25;22.25;13.00
77411;PMS7003;66484;49.968;19.140;2023-05-07T05:15:06;29.25;25.75;19.00
77411;PMS7003;66484;49.968;19.140;2023-05-07T05:17:34;28.00;28.00;17.50
77411;PMS7003;66484;49.968;19.140;2023-05-07T05:20:03;25.50;25.25;18.50
77411;PMS7003;66484;49.968;19.140;2023-05-07T05:22:32;28.25;25.00;14.25
77411;PMS7003;66484;49.968;19.140;2023-05-07T05:25:00;20.50;19.75;11.50
77411;PMS7003;66484;49.968;19.140;2023-05-07T05:27:28;24.00;21.50;14.75
77411;PMS7003;66484;49.968;19.140;2023-05-07T05:29:55;24.75;24.75;18.75
77411;PMS7003;66484;49.968;19.140;2023-05-07T05:32:22;18.75;16.25;13.25
77411;PMS7003;66484;49.968;19.140;2023-05-07T05:34:50;19.75;18.25;14.00
77411;PMS7003;66484;49.968;19.140;2023-05-07T05:37:17;20.25;17.75;14.25
77411;PMS7003;66484;49.968;19.140;2023-05-07T05:39:44;14.00;13.25;11.25
77411;PMS7003;66484;49.968;19.140;2023-05-07T05:42:11;17.75;14.25;11.00
77411;PMS7003;66484;49.968;19.140;2023-05-07T05:44:39;15.50;15.50;11.25
77411;PMS7003;66484;49.968;19.140;2023-05-07T05:47:06;22.00;19.25;13.00
77411;PMS7003;66484;49.968;19.140;2023-05-07T05:49:34;20.50;16.25;11.00
77411;PMS7003;66484;49.968;19.140;2023-05-07T05:52:01;23.75;18.50;13.00
77411;PMS7003;66484;49.968;19.140;2023-05-07T05:54:29;23.25;19.50;12.25
77411;PMS7003;66484;49.968;19.140;2023-05-07T05:56:56;20.50;20.50;13.25
77411;PMS7003;66484;49.968;19.140;2023-05-07T05:59:23;22.00;18.75;12.00
77411;PMS7003;66484;49.968;19.140;2023-05-07T06:01:51;21.00;19.00;13.50
77411;PMS7003;66484;49.968;19.140;2023-05-07T06:04:18;26.00;22.75;12.75
77411;PMS7003;66484;49.968;19.140;2023-05-07T06:06:45;36.75;28.25;18.00
77411;PMS7003;66484;49.968;19.140;2023-05-07T06:09:13;27.50;25.25;13.25
77411;PMS7003;66484;49.968;19.140;2023-05-07T06:11:40;33.00;28.00;18.25
77411;PMS7003;66484;49.968;19.140;2023-05-07T06:14:07;28.50;28.50;18.75
77411;PMS7003;66484;49.968;19.140;2023-05-07T06:16:35;24.50;21.25;14.00
77411;PMS7003;66484;49.968;19.140;2023-05-07T06:19:04;38.00;29.25;18.50
77411;PMS7003;66484;49.968;19.140;2023-05-07T06:21:31;22.75;20.00;10.75
77411;PMS7003;66484;49.968;19.140;2023-05-07T06:23:59;26.50;23.50;15.75
77411;PMS7003;66484;49.968;19.140;2023-05-07T06:26:26;23.25;22.25;12.25
77411;PMS7003;66484;49.968;19.140;2023-05-07T06:28:54;36.25;32.50;19.50
77411;PMS7003;66484;49.968;19.140;2023-05-07T06:31:21;33.00;29.50;19.25
77411;PMS7003;66484;49.968;19.140;2023-05-07T06:33:49;38.75;32.75;18.50
77411;PMS7003;66484;49.968;19.140;2023-05-07T06:36:16;34.25;31.75;18.75
77411;PMS7003;66484;49.968;19.140;2023-05-07T06:38:43;28.25;27.00;17.00
77411;PMS7003;66484;49.968;19.140;2023-05-07T06:41:10;14.25;12.25;11.25
77411;PMS7003;66484;49.968;19.140;2023-05-07T06:43:37;32.75;29.50;18.75
77411;PMS7003;66484;49.968;19.140;2023-05-07T06:46:05;25.50;24.50;16.00
77411;PMS7003;66484;49.968;19.140;2023-05-07T06:48:32;24.75;22.50;16.25
77411;PMS7003;66484;49.968;19.140;2023-05-07T06:51:00;29.00;25.75;17.25
77411;PMS7003;66484;49.968;19.140;2023-05-07T06:53:27;28.25;25.75;17.75
77411;PMS7003;66484;49.968;19.140;2023-05-07T06:55:56;30.25;27.00;19.25
77411;PMS7003;66484;49.968;19.140;2023-05-07T06:58:23;19.50;13.25;8.50
77411;PMS7003;66484;49.968;19.140;2023-05-07T07:00:50;20.25;20.25;14.75
77411;PMS7003;66484;49.968;19.140;2023-05-07T07:03:18;17.50;16.50;12.50
77411;PMS7003;66484;49.968;19.140;2023-05-07T07:05:45;23.00;21.25;15.00
77411;PMS7003;66484;49.968;19.140;2023-05-07T07:08:13;24.25;21.50;16.25
77411;PMS7003;66484;49.968;19.140;2023-05-07T07:10:41;21.00;20.00;13.75
77411;PMS7003;66484;49.968;19.140;2023-05-07T07:13:09;21.75;18.50;11.00
77411;PMS7003;66484;49.968;19.140;2023-05-07T07:15:37;21.00;18.00;11.50
77411;PMS7003;66484;49.968;19.140;2023-05-07T07:18:05;16.50;15.25;11.25
77411;PMS7003;66484;49.968;19.140;2023-05-07T07:20:33;16.75;15.50;10.75
77411;PMS7003;66484;49.968;19.140;2023-05-07T07:23:00;22.00;17.00;11.00
77411;PMS7003;66484;49.968;19.140;2023-05-07T07:25:27;17.00;15.75;10.75
77411;PMS7003;66484;49.968;19.140;2023-05-07T07:27:54;13.25;9.50;3.50
77411;PMS7003;66484;49.968;19.140;2023-05-07T07:30:22;7.00;6.75;3.75
77411;PMS7003;66484;49.968;19.140;2023-05-07T07:32:49;9.25;9.25;6.50
77411;PMS7003;66484;49.968;19.140;2023-05-07T07:35:18;5.00;5.00;3.00
77411;PMS7003;66484;49.968;19.140;2023-05-07T07:37:46;10.00;9.25;6.50
77411;PMS7003;66484;49.968;19.140;2023-05-07T07:40:14;8.50;8.25;5.25
77411;PMS7003;66484;49.968;19.140;2023-05-07T07:42:41;8.25;6.25;5.50
77411;PMS7003;66484;49.968;19.140;2023-05-07T07:45:09;8.25;8.25;5.00
77411;PMS7003;66484;49.968;19.140;2023-05-07T07:47:38;9.75;9.75;7.75
77411;PMS7003;66484;49.968;19.140;2023-05-07T07:50:09;10.00;10.00;8.00
77411;PMS7003;66484;49.968;19.140;2023-05-07T07:52:45;11.50;10.75;8.75
77411;PMS7003;66484;49.968;19.140;2023-05-07T07:55:14;12.00;10.75;7.75
77411;PMS7003;66484;49.968;19.140;2023-05-07T07:57:45;13.25;10.00;7.50
77411;PMS7003;66484;49.968;19.140;2023-05-07T08:00:13;9.25;9.25;5.25
77411;PMS7003;66484;49.968;19.140;2023-05-07T08:02:40;12.25;10.75;5.25
77411;PMS7003;66484;49.968;19.140;2023-05-07T08:05:08;9.50;9.50;5.00
77411;PMS7003;66484;49.968;19.140;2023-05-07T08:07:36;8.50;8.50;6.00
77411;PMS7003;66484;49.968;19.140;2023-05-07T08:10:03;13.00;11.25;8.25
77411;PMS7003;66484;49.968;19.140;2023-05-07T08:12:31;9.50;8.25;4.75
77411;PMS7003;66484;49.968;19.140;2023-05-07T08:14:59;11.50;10.50;7.75
77411;PMS7003;66484;49.968;19.140;2023-05-07T08:17:26;13.25;11.50;8.25
77411;PMS7003;66484;49.968;19.140;2023-05-07T08:19:54;18.00;18.00;10.00
77411;PMS7003;66484;49.968;19.140;2023-05-07T08:22:21;4.75;2.75;2.00
77411;PMS7003;66484;49.968;19.140;2023-05-07T08:24:49;11.50;10.25;5.25
77411;PMS7003;66484;49.968;19.140;2023-05-07T08:27:18;9.50;8.25;4.50
77411;PMS7003;66484;49.968;19.140;2023-05-07T08:29:48;10.25;10.25;5.25
77411;PMS7003;66484;49.968;19.140;2023-05-07T08:32:19;10.00;8.50;5.00
77411;PMS7003;66484;49.968;19.140;2023-05-07T08:34:48;13.75;11.25;8.00
77411;PMS7003;66484;49.968;19.140;2023-05-07T08:37:15;12.25;12.25;9.00
77411;PMS7003;66484;49.968;19.140;2023-05-07T08:39:43;10.25;10.25;8.00
77411;PMS7003;66484;49.968;19.140;2023-05-07T08:42:11;11.00;11.00;8.00
77411;PMS7003;66484;49.968;19.140;2023-05-07T08:44:39;14.25;14.25;11.25
77411;PMS7003;66484;49.968;19.140;2023-05-07T08:47:08;17.00;13.00;10.00
77411;PMS7003;66484;49.968;19.140;2023-05-07T08:49:35;9.75;9.75;6.50
77411;PMS7003;66484;49.968;19.140;2023-05-07T08:52:02;16.50;13.75;9.25
77411;PMS7003;66484;49.968;19.140;2023-05-07T08:54:30;16.00;12.25;8.00
77411;PMS7003;66484;49.968;19.140;2023-05-07T08:56:58;11.25;9.25;6.50
77411;PMS7003;66484;49.968;19.140;2023-05-07T08:59:26;10.75;10.75;6.00
77411;PMS7003;66484;49.968;19.140;2023-05-07T09:01:53;11.50;11.50;8.00
77411;PMS7003;66484;49.968;19.140;2023-05-07T09:04:22;11.50;11.50;8.25
77411;PMS7003;66484;49.968;19.140;2023-05-07T09:06:49;11.25;10.00;7.50
77411;PMS7003;66484;49.968;19.140;2023-05-07T09:09:18;11.50;11.50;8.75
77411;PMS7003;66484;49.968;19.140;2023-05-07T09:11:46;10.00;10.00;7.00
77411;PMS7003;66484;49.968;19.140;2023-05-07T09:14:14;9.00;9.00;8.00
77411;PMS7003;66484;49.968;19.140;2023-05-07T09:16:41;6.00;6.00;5.00
77411;PMS7003;66484;49.968;19.140;2023-05-07T09:19:09;6.00;6.00;5.00
77411;PMS7003;66484;49.968;19.140;2023-05-07T09:21:36;6.33;5.67;4.33
77411;PMS7003;66484;49.968;19.140;2023-05-07T09:24:04;7.50;7.50;2.75
77411;PMS7003;66484;49.968;19.140;2023-05-07T09:26:32;8.50;8.50;5.50
77411;PMS7003;66484;49.968;19.140;2023-05-07T09:29:01;11.75;11.75;8.25
77411;PMS7003;66484;49.968;19.140;2023-05-07T09:31:29;2.67;2.67;0.00
77411;PMS7003;66484;49.968;19.140;2023-05-07T09:33:57;10.50;8.50;6.50
77411;PMS7003;66484;49.968;19.140;2023-05-07T09:36:24;14.25;12.00;10.00
77411;PMS7003;66484;49.968;19.140;2023-05-07T09:38:51;8.00;8.00;5.67
77411;PMS7003;66484;49.968;19.140;2023-05-07T09:41:19;5.33;5.33;4.00
77411;PMS7003;66484;49.968;19.140;2023-05-07T09:43:49;7.67;4.67;3.33
77411;PMS7003;66484;49.968;19.140;2023-05-07T09:46:22;4.00;4.00;4.00
77411;PMS7003;66484;49.968;19.140;2023-05-07T09:49:01;6.00;6.00;4.00
77411;PMS7003;66484;49.968;19.140;2023-05-07T09:51:30;5.33;5.33;3.67
77411;PMS7003;66484;49.968;19.140;2023-05-07T09:54:07;5.67;5.67;4.67
77411;PMS7003;66484;49.968;19.140;2023-05-07T09:56:34;7.00;7.00;4.67
77411;PMS7003;66484;49.968;19.140;2023-05-07T09:59:04;6.00;5.33;4.00
77411;PMS7003;66484;49.968;19.140;2023-05-07T10:01:32;9.00;6.67;4.67
77411;PMS7003;66484;49.968;19.140;2023-05-07T10:04:03;10.67;10.33;7.67
77411;PMS7003;66484;49.968;19.140;2023-05-07T10:06:32;10.00;10.00;5.33
77411;PMS7003;66484;49.968;19.140;2023-05-07T10:09:00;9.33;8.00;4.33
77411;PMS7003;66484;49.968;19.140;2023-05-07T10:11:27;10.33;8.33;5.67
77411;PMS7003;66484;49.968;19.140;2023-05-07T10:13:56;9.00;9.00;5.33
77411;PMS7003;66484;49.968;19.140;2023-05-07T10:16:23;5.67;4.67;4.00
77411;PMS7003;66484;49.968;19.140;2023-05-07T10:18:53;7.00;5.00;4.00
77411;PMS7003;66484;49.968;19.140;2023-05-07T10:21:23;6.33;6.33;5.33
77411;PMS7003;66484;49.968;19.140;2023-05-07T10:23:53;9.00;6.00;4.33
77411;PMS7003;66484;49.968;19.140;2023-05-07T10:26:27;11.25;7.00;5.00
77411;PMS7003;66484;49.968;19.140;2023-05-07T10:29:02;11.25;11.25;8.00
77411;PMS7003;66484;49.968;19.140;2023-05-07T10:32:16;10.50;9.25;5.00
77411;PMS7003;66484;49.968;19.140;2023-05-07T10:34:32;14.50;11.25;8.00
77411;PMS7003;66484;49.968;19.140;2023-05-07T10:37:06;17.50;15.50;9.25
77411;PMS7003;66484;49.968;19.140;2023-05-07T10:39:34;14.25;12.75;10.00
77411;PMS7003;66484;49.968;19.140;2023-05-07T10:42:08;11.50;11.00;7.75
77411;PMS7003;66484;49.968;19.140;2023-05-07T10:44:36;11.00;9.00;9.00
77411;PMS7003;66484;49.968;19.140;2023-05-07T10:49:32;10.00;7.00;5.00
77411;PMS7003;66484;49.968;19.140;2023-05-07T10:54:47;16.67;14.33;11.67
77411;PMS7003;66484;49.968;19.140;2023-05-07T10:57:53;13.67;10.67;6.00
77411;PMS7003;66484;49.968;19.140;2023-05-07T11:03:05;11.67;10.00;8.00
77411;PMS7003;66484;49.968;19.140;2023-05-07T11:05:34;15.67;12.33;9.67
77411;PMS7003;66484;49.968;19.140;2023-05-07T11:08:04;13.67;12.33;9.00
77411;PMS7003;66484;49.968;19.140;2023-05-07T11:10:54;17.00;12.67;9.00
77411;PMS7003;66484;49.968;19.140;2023-05-07T11:16:20;11.75;11.75;9.75
77411;PMS7003;66484;49.968;19.140;2023-05-07T11:18:52;14.50;13.00;10.25
77411;PMS7003;66484;49.968;19.140;2023-05-07T11:21:39;18.00;16.67;13.00
77411;PMS7003;66484;49.968;19.140;2023-05-07T11:24:08;12.33;12.33;9.33
77411;PMS7003;66484;49.968;19.140;2023-05-07T11:26:44;14.00;14.00;10.00
77411;PMS7003;66484;49.968;19.140;2023-05-07T11:29:21;14.00;14.00;10.00
77411;PMS7003;66484;49.968;19.140;2023-05-07T11:31:50;19.25;18.25;11.00
77411;PMS7003;66484;49.968;19.140;2023-05-07T11:34:22;22.00;20.00;11.75
77411;PMS7003;66484;49.968;19.140;2023-05-07T11:36:51;14.00;11.25;8.25
77411;PMS7003;66484;49.968;19.140;2023-05-07T11:39:23;19.50;19.25;12.75
77411;PMS7003;66484;49.968;19.140;2023-05-07T11:42:02;14.25;14.25;12.00
77411;PMS7003;66484;49.968;19.140;2023-05-07T11:44:43;14.75;14.00;10.50
77411;PMS7003;66484;49.968;19.140;2023-05-07T11:47:19;15.00;15.00;10.00
77411;PMS7003;66484;49.968;19.140;2023-05-07T11:49:47;15.67;13.33;8.67
77411;PMS7003;66484;49.968;19.140;2023-05-07T11:52:16;16.75;14.50;11.00
77411;PMS7003;66484;49.968;19.140;2023-05-07T11:54:48;14.75;13.75;10.00
77411;PMS7003;66484;49.968;19.140;2023-05-07T11:57:17;12.00;12.00;8.67
77411;PMS7003;66484;49.968;19.140;2023-05-07T11:59:55;14.00;11.33;9.00
77411;PMS7003;66484;49.968;19.140;2023-05-07T12:02:28;15.75;15.75;11.25
77411;PMS7003;66484;49.968;19.140;2023-05-07T12:04:57;14.50;13.00;10.00
77411;PMS7003;66484;49.968;19.140;2023-05-07T12:07:25;14.25;14.25;12.00
77411;PMS7003;66484;49.968;19.140;2023-05-07T12:09:53;16.25;14.50;10.00
77411;PMS7003;66484;49.968;19.140;2023-05-07T12:12:21;16.25;16.25;11.00
77411;PMS7003;66484;49.968;19.140;2023-05-07T12:14:49;20.00;16.33;11.00
77411;PMS7003;66484;49.968;19.140;2023-05-07T12:17:17;50.00;36.75;23.00
77411;PMS7003;66484;49.968;19.140;2023-05-07T12:19:45;34.25;26.00;17.00
77411;PMS7003;66484;49.968;19.140;2023-05-07T12:22:13;20.75;20.75;13.00
77411;PMS7003;66484;49.968;19.140;2023-05-07T12:27:16;20.33;19.00;12.67
77411;PMS7003;66484;49.968;19.140;2023-05-07T12:29:45;21.67;18.33;11.67
77411;PMS7003;66484;49.968;19.140;2023-05-07T12:32:17;14.67;13.67;10.67
77411;PMS7003;66484;49.968;19.140;2023-05-07T12:34:50;14.33;12.67;6.67
77411;PMS7003;66484;49.968;19.140;2023-05-07T12:37:23;17.67;15.00;10.00
77411;PMS7003;66484;49.968;19.140;2023-05-07T12:40:05;17.67;13.33;10.00
77411;PMS7003;66484;49.968;19.140;2023-05-07T12:42:36;18.33;17.33;10.67
77411;PMS7003;66484;49.968;19.140;2023-05-07T12:45:07;17.67;14.33;10.67
77411;PMS7003;66484;49.968;19.140;2023-05-07T12:47:39;12.50;11.25;9.25
77411;PMS7003;66484;49.968;19.140;2023-05-07T12:50:06;18.50;15.25;12.50
77411;PMS7003;66484;49.968;19.140;2023-05-07T12:52:34;13.33;13.33;9.00
77411;PMS7003;66484;49.968;19.140;2023-05-07T12:55:05;15.67;15.67;10.00
77411;PMS7003;66484;49.968;19.140;2023-05-07T12:57:40;19.33;18.00;10.33
77411;PMS7003;66484;49.968;19.140;2023-05-07T13:00:09;18.00;14.67;10.67
77411;PMS7003;66484;49.968;19.140;2023-05-07T13:02:41;13.67;13.67;9.67
77411;PMS7003;66484;49.968;19.140;2023-05-07T13:05:13;18.00;15.00;11.67
77411;PMS7003;66484;49.968;19.140;2023-05-07T13:07:41;18.33;17.00;9.33
77411;PMS7003;66484;49.968;19.140;2023-05-07T13:10:21;13.67;13.67;7.67
77411;PMS7003;66484;49.968;19.140;2023-05-07T13:12:52;15.00;13.75;11.00
77411;PMS7003;66484;49.968;19.140;2023-05-07T13:15:20;19.75;18.25;12.00
77411;PMS7003;66484;49.968;19.140;2023-05-07T13:17:48;15.50;13.50;9.75
77411;PMS7003;66484;49.968;19.140;2023-05-07T13:20:16;23.00;20.25;12.50
77411;PMS7003;66484;49.968;19.140;2023-05-07T13:22:44;17.75;17.00;11.00
77411;PMS7003;66484;49.968;19.140;2023-05-07T13:25:12;18.50;18.25;12.50
77411;PMS7003;66484;49.968;19.140;2023-05-07T13:27:41;24.75;16.50;10.50
77411;PMS7003;66484;49.968;19.140;2023-05-07T13:30:09;15.33;12.67;10.67
77411;PMS7003;66484;49.968;19.140;2023-05-07T13:32:37;10.25;8.00;4.00
77411;PMS7003;66484;49.968;19.140;2023-05-07T13:35:05;20.33;16.67;12.00
77411;PMS7003;66484;49.968;19.140;2023-05-07T13:37:33;16.00;16.00;9.00
77411;PMS7003;66484;49.968;19.140;2023-05-07T13:40:00;17.00;17.00;12.00
77411;PMS7003;66484;49.968;19.140;2023-05-07T13:42:28;15.00;14.00;11.00
77411;PMS7003;66484;49.968;19.140;2023-05-07T13:44:56;17.33;15.33;11.67
77411;PMS7003;66484;49.968;19.140;2023-05-07T13:47:24;18.67;17.00;11.00
77411;PMS7003;66484;49.968;19.140;2023-05-07T13:49:51;13.00;11.67;9.00
77411;PMS7003;66484;49.968;19.140;2023-05-07T13:52:19;18.00;13.67;10.33
77411;PMS7003;66484;49.968;19.140;2023-05-07T13:54:46;14.33;13.00;10.67
77411;PMS7003;66484;49.968;19.140;2023-05-07T13:57:14;15.67;13.33;10.00
77411;PMS7003;66484;49.968;19.140;2023-05-07T13:59:42;13.33;12.33;9.67
77411;PMS7003;66484;49.968;19.140;2023-05-07T14:02:09;12.33;12.33;9.00
77411;PMS7003;66484;49.968;19.140;2023-05-07T14:04:40;21.00;19.00;12.00